createdAt,value
2023-03-22T00:00:06.495Z,9.80
2023-03-22T00:02:33.474Z,9.80
2023-03-22T00:05:00.016Z,9.80
2023-03-22T00:07:26.758Z,9.70
2023-03-22T00:09:53.530Z,9.70
2023-03-22T00:12:22.433Z,9.60
2023-03-22T00:14:49.556Z,9.50
2023-03-22T00:17:16.095Z,9.40
2023-03-22T00:19:45.109Z,9.20
2023-03-22T00:22:11.809Z,9.30
2023-03-22T00:24:38.479Z,9.30
2023-03-22T00:27:04.998Z,9.30
2023-03-22T00:29:31.568Z,9.20
2023-03-22T00:31:58.047Z,9.20
2023-03-22T00:34:24.690Z,9.20
2023-03-22T00:36:51.881Z,9.10
2023-03-22T00:39:19.118Z,9.20
2023-03-22T00:41:47.764Z,9.10
2023-03-22T00:44:14.437Z,9.00
2023-03-22T00:46:41.092Z,9.00
2023-03-22T00:49:07.826Z,9.00
2023-03-22T00:51:36.948Z,8.90
2023-03-22T00:54:06.843Z,8.90
2023-03-22T00:56:33.951Z,8.80
2023-03-22T00:59:00.748Z,8.80
2023-03-22T01:01:30.277Z,8.90
2023-03-22T01:03:57.308Z,9.10
2023-03-22T01:06:23.928Z,9.10
2023-03-22T01:08:50.997Z,9.10
2023-03-22T01:11:18.248Z,9.00
2023-03-22T01:13:45.630Z,9.10
2023-03-22T01:16:12.177Z,9.10
2023-03-22T01:18:38.724Z,9.10
2023-03-22T01:21:06.339Z,9.10
2023-03-22T01:23:32.882Z,9.00
2023-03-22T01:25:59.695Z,9.00
2023-03-22T01:28:27.284Z,8.90
2023-03-22T01:30:55.180Z,8.90
2023-03-22T01:33:22.150Z,8.80
2023-03-22T01:35:48.757Z,8.90
2023-03-22T01:38:15.355Z,8.80
2023-03-22T01:40:42.307Z,8.80
2023-03-22T01:43:14.957Z,8.80
2023-03-22T01:45:42.972Z,8.90
2023-03-22T01:48:18.675Z,8.80
2023-03-22T01:50:56.300Z,8.80
2023-03-22T01:53:25.426Z,8.70
2023-03-22T01:55:53.966Z,8.60
2023-03-22T01:58:20.569Z,8.60
2023-03-22T02:00:49.568Z,8.60
2023-03-22T02:03:22.908Z,8.70
2023-03-22T02:05:52.696Z,8.70
2023-03-22T02:08:19.992Z,8.70
2023-03-22T02:10:46.591Z,8.70
2023-03-22T02:13:42.661Z,8.80
2023-03-22T02:16:28.834Z,8.70
2023-03-22T02:19:08.781Z,8.80
2023-03-22T02:22:21.815Z,8.80
2023-03-22T02:25:19.348Z,8.70
2023-03-22T02:27:52.629Z,8.70
2023-03-22T02:31:02.088Z,8.70
2023-03-22T02:33:47.366Z,8.70
2023-03-22T02:36:32.678Z,8.70
2023-03-22T02:39:18.115Z,8.60
2023-03-22T02:42:28.846Z,8.60
2023-03-22T02:45:00.259Z,8.50
2023-03-22T02:48:04.656Z,8.60
2023-03-22T02:50:40.906Z,8.70
2023-03-22T02:53:17.318Z,8.60
2023-03-22T02:55:55.720Z,8.60
2023-03-22T02:58:27.079Z,8.60
2023-03-22T03:00:59.590Z,8.50
2023-03-22T03:03:32.285Z,8.40
2023-03-22T03:06:05.110Z,8.50
2023-03-22T03:08:38.419Z,8.40
2023-03-22T03:11:06.893Z,8.30
2023-03-22T03:13:38.713Z,8.20
2023-03-22T03:16:07.997Z,8.20
2023-03-22T03:18:51.091Z,8.20
2023-03-22T03:21:36.025Z,8.30
2023-03-22T03:24:21.957Z,8.30
2023-03-22T03:26:57.999Z,8.30
2023-03-22T03:29:39.249Z,8.50
2023-03-22T03:32:12.948Z,8.50
2023-03-22T03:35:06.883Z,8.50
2023-03-22T03:37:48.112Z,8.70
2023-03-22T03:40:24.032Z,8.80
2023-03-22T03:42:53.119Z,8.80
2023-03-22T03:45:22.049Z,8.80
2023-03-22T03:47:57.027Z,8.80
2023-03-22T03:50:25.643Z,8.90
2023-03-22T03:52:53.443Z,8.90
2023-03-22T03:55:21.140Z,8.90
2023-03-22T03:57:47.823Z,8.90
2023-03-22T04:00:15.446Z,9.00
2023-03-22T04:02:42.628Z,8.90
2023-03-22T04:05:10.488Z,8.90
2023-03-22T04:07:37.800Z,9.10
2023-03-22T04:10:06.042Z,9.10
2023-03-22T04:12:34.221Z,9.10
2023-03-22T04:15:00.766Z,9.10
2023-03-22T04:17:29.238Z,9.10
2023-03-22T04:19:59.537Z,9.20
2023-03-22T04:22:26.718Z,9.10
2023-03-22T04:24:53.297Z,9.20
2023-03-22T04:27:21.498Z,9.10
2023-03-22T04:29:51.349Z,9.20
2023-03-22T04:32:19.397Z,9.10
2023-03-22T04:34:46.783Z,9.10
2023-03-22T04:37:14.475Z,9.10
2023-03-22T04:39:41.460Z,9.10
2023-03-22T04:42:08.271Z,9.10
2023-03-22T04:44:35.501Z,9.00
2023-03-22T04:47:02.212Z,9.10
2023-03-22T04:49:29.208Z,9.10
2023-03-22T04:51:56.474Z,9.00
2023-03-22T04:54:24.154Z,9.00
2023-03-22T04:56:53.456Z,9.00
2023-03-22T04:59:20.427Z,8.90
2023-03-22T05:01:47.930Z,9.10
2023-03-22T05:04:15.093Z,9.00
2023-03-22T05:06:41.710Z,8.90
2023-03-22T05:09:08.371Z,9.00
2023-03-22T05:11:35.293Z,9.10
2023-03-22T05:14:05.596Z,9.10
2023-03-22T05:16:32.662Z,9.20
2023-03-22T05:19:02.451Z,9.20
2023-03-22T05:21:36.744Z,9.20
2023-03-22T05:24:04.104Z,9.10
2023-03-22T05:26:30.723Z,9.00
2023-03-22T05:28:57.287Z,9.10
2023-03-22T05:31:24.239Z,9.20
2023-03-22T05:33:51.821Z,9.10
2023-03-22T05:36:20.137Z,9.00
2023-03-22T05:38:46.949Z,9.10
2023-03-22T05:41:14.458Z,9.00
2023-03-22T05:43:43.519Z,9.10
2023-03-22T05:46:11.922Z,9.00
2023-03-22T05:48:40.155Z,9.10
2023-03-22T05:51:13.514Z,9.00
2023-03-22T05:53:39.991Z,9.00
2023-03-22T05:56:10.094Z,9.10
2023-03-22T05:58:36.818Z,9.10
2023-03-22T06:01:17.860Z,9.10
2023-03-22T06:03:48.790Z,9.20
2023-03-22T06:06:15.898Z,9.20
2023-03-22T06:08:45.655Z,9.20
2023-03-22T06:11:12.808Z,9.10
2023-03-22T06:13:39.320Z,9.30
2023-03-22T06:16:06.842Z,9.10
2023-03-22T06:18:34.016Z,9.20
2023-03-22T06:21:01.236Z,9.20
2023-03-22T06:23:29.009Z,9.30
2023-03-22T06:25:57.811Z,9.40
2023-03-22T06:28:35.155Z,9.40
2023-03-22T06:31:09.211Z,9.50
2023-03-22T06:33:36.809Z,9.40
2023-03-22T06:36:04.060Z,9.50
2023-03-22T06:38:37.952Z,9.60
2023-03-22T06:41:04.601Z,9.70
2023-03-22T06:43:31.288Z,9.70
2023-03-22T06:46:00.850Z,9.70
2023-03-22T06:48:27.541Z,9.70
2023-03-22T06:50:55.887Z,9.70
2023-03-22T06:53:22.525Z,9.80
2023-03-22T06:55:49.102Z,9.70
2023-03-22T06:58:19.016Z,9.80
2023-03-22T07:00:45.846Z,9.90
2023-03-22T07:03:12.868Z,9.90
2023-03-22T07:05:39.453Z,10.20
2023-03-22T07:08:06.212Z,10.10
2023-03-22T07:10:32.898Z,10.20
2023-03-22T07:12:59.842Z,10.30
2023-03-22T07:15:26.593Z,10.40
2023-03-22T07:17:53.074Z,10.30
2023-03-22T07:20:20.762Z,10.30
2023-03-22T07:22:47.276Z,10.40
2023-03-22T07:25:14.403Z,10.40
2023-03-22T07:27:41.376Z,10.60
2023-03-22T07:30:10.196Z,10.50
2023-03-22T07:32:37.208Z,10.70
2023-03-22T07:35:03.867Z,10.80
2023-03-22T07:37:30.551Z,11.00
2023-03-22T07:39:57.166Z,11.10
2023-03-22T07:42:25.058Z,11.10
2023-03-22T07:44:52.149Z,11.40
2023-03-22T07:47:30.863Z,11.40
2023-03-22T07:50:04.890Z,11.90
2023-03-22T07:52:32.450Z,11.80
2023-03-22T07:54:59.203Z,12.10
2023-03-22T07:57:25.748Z,12.70
2023-03-22T07:59:52.266Z,13.40
2023-03-22T08:02:18.779Z,13.50
2023-03-22T08:04:52.702Z,13.70
2023-03-22T08:25:16.370Z,13.60
2023-03-22T08:27:44.552Z,13.40
2023-03-22T08:30:14.445Z,14.10
2023-03-22T08:32:41.056Z,13.80
2023-03-22T08:35:08.814Z,13.90
2023-03-22T08:37:35.465Z,14.20
2023-03-22T08:40:02.446Z,14.30
2023-03-22T08:42:29.178Z,14.40
2023-03-22T08:44:55.916Z,14.00
2023-03-22T08:47:22.590Z,14.00
2023-03-22T08:49:49.088Z,13.80
2023-03-22T08:52:16.181Z,14.30
2023-03-22T08:54:45.734Z,14.50
2023-03-22T08:57:13.733Z,14.60
2023-03-22T08:59:40.656Z,15.10
2023-03-22T09:02:07.651Z,14.90
2023-03-22T09:04:34.245Z,14.80
2023-03-22T09:07:00.884Z,15.60
2023-03-22T09:09:27.356Z,15.30
2023-03-22T09:11:53.935Z,15.10
2023-03-22T09:14:20.481Z,15.80
2023-03-22T09:16:47.507Z,16.10
2023-03-22T09:19:14.117Z,16.90
2023-03-22T09:21:40.606Z,17.00
2023-03-22T09:24:10.479Z,16.10
2023-03-22T09:26:37.077Z,16.30
2023-03-22T09:29:03.741Z,16.90
2023-03-22T09:31:30.475Z,17.70
2023-03-22T09:33:57.289Z,18.60
2023-03-22T09:36:23.747Z,17.30
2023-03-22T09:38:50.651Z,17.80
2023-03-22T09:41:20.918Z,17.50
2023-03-22T09:43:58.218Z,17.20
2023-03-22T09:46:31.666Z,17.40
2023-03-22T09:49:04.580Z,17.40
2023-03-22T09:51:53.475Z,17.30
2023-03-22T09:54:32.126Z,18.00
2023-03-22T09:57:39.510Z,18.50
2023-03-22T10:00:18.659Z,19.10
2023-03-22T10:02:46.033Z,19.80
2023-03-22T10:05:44.015Z,21.90
2023-03-22T10:08:47.584Z,20.80
2023-03-22T10:11:19.467Z,18.80
2023-03-22T10:14:10.743Z,18.90
2023-03-22T10:16:38.981Z,18.50
2023-03-22T10:19:18.511Z,18.90
2023-03-22T10:21:48.124Z,19.30
2023-03-22T10:24:26.925Z,18.90
2023-03-22T10:26:53.899Z,19.20
2023-03-22T10:29:35.822Z,18.90
2023-03-22T10:32:25.109Z,18.70
2023-03-22T10:34:52.527Z,19.00
2023-03-22T10:37:26.678Z,18.90
2023-03-22T10:39:56.147Z,18.40
2023-03-22T10:42:28.854Z,19.20
2023-03-22T10:45:05.894Z,19.00
2023-03-22T10:47:46.200Z,19.30
2023-03-22T10:50:20.739Z,19.10
2023-03-22T10:53:05.219Z,19.20
2023-03-22T10:55:31.919Z,18.60
2023-03-22T10:58:16.679Z,18.30
2023-03-22T11:00:54.889Z,18.50
2023-03-22T11:03:28.234Z,18.40
2023-03-22T11:06:13.225Z,18.60
2023-03-22T11:08:42.893Z,18.80
2023-03-22T11:11:29.641Z,19.80
2023-03-22T11:14:05.678Z,20.10
2023-03-22T11:16:40.646Z,20.10
2023-03-22T11:19:16.596Z,19.00
2023-03-22T11:21:43.484Z,19.40
2023-03-22T11:24:13.420Z,19.10
2023-03-22T11:26:41.638Z,19.00
2023-03-22T11:29:17.117Z,19.40
2023-03-22T11:31:56.130Z,19.70
2023-03-22T11:34:26.430Z,19.80
2023-03-22T11:36:59.481Z,19.90
2023-03-22T11:39:30.543Z,19.90
2023-03-22T11:41:58.894Z,20.30
2023-03-22T11:44:34.055Z,20.60
2023-03-22T11:47:02.721Z,21.20
2023-03-22T11:49:42.590Z,20.70
2023-03-22T11:52:12.485Z,20.90
2023-03-22T11:54:40.218Z,20.80
2023-03-22T11:57:13.858Z,22.00
2023-03-22T11:59:57.015Z,22.30
2023-03-22T12:02:27.962Z,21.40
2023-03-22T12:05:05.678Z,21.10
2023-03-22T12:07:34.391Z,20.80
2023-03-22T12:10:15.872Z,20.90
2023-03-22T12:12:55.995Z,20.60
2023-03-22T12:15:24.488Z,21.30
2023-03-22T12:18:08.162Z,22.00
2023-03-22T12:20:43.258Z,21.20
2023-03-22T12:23:15.958Z,21.30
2023-03-22T12:25:48.231Z,21.50
2023-03-22T12:28:18.251Z,21.60
2023-03-22T12:30:50.377Z,21.50
2023-03-22T12:33:25.395Z,21.60
2023-03-22T12:35:56.935Z,20.40
2023-03-22T12:38:41.596Z,20.60
2023-03-22T12:41:37.491Z,20.80
2023-03-22T12:44:30.707Z,20.20
2023-03-22T12:47:01.610Z,20.30
2023-03-22T12:49:41.004Z,20.50
2023-03-22T12:52:19.375Z,20.60
2023-03-22T12:54:47.439Z,20.70
2023-03-22T12:57:15.947Z,21.50
2023-03-22T12:59:48.777Z,21.90
2023-03-22T13:02:32.522Z,22.30
2023-03-22T13:05:02.893Z,20.40
2023-03-22T13:07:41.879Z,19.70
2023-03-22T13:10:32.503Z,19.90
2023-03-22T13:13:38.184Z,20.40
2023-03-22T13:16:11.056Z,19.70
2023-03-22T13:18:38.155Z,20.10
2023-03-22T13:21:15.811Z,19.60
2023-03-22T13:24:10.144Z,20.40
2023-03-22T13:26:54.054Z,20.40
2023-03-22T13:29:24.472Z,20.60
2023-03-22T13:31:51.106Z,20.50
2023-03-22T13:34:21.034Z,20.20
2023-03-22T13:36:56.444Z,19.50
2023-03-22T13:39:25.349Z,19.60
2023-03-22T13:42:21.833Z,20.50
2023-03-22T13:45:02.660Z,20.10
2023-03-22T13:47:42.854Z,19.70
2023-03-22T13:50:26.376Z,19.50
2023-03-22T13:52:59.714Z,19.10
2023-03-22T13:55:59.446Z,19.40
2023-03-22T13:58:53.103Z,19.80
2023-03-22T14:01:36.097Z,20.10
2023-03-22T14:04:10.725Z,20.60
2023-03-22T14:06:52.700Z,20.30
2023-03-22T14:09:35.976Z,20.90
2023-03-22T14:12:24.518Z,20.40
2023-03-22T14:15:00.491Z,20.00
2023-03-22T14:17:42.103Z,20.00
2023-03-22T14:20:14.444Z,19.60
